Terminal Aerodrome Forecast
Issued by NWS Bismarck, ND

Home | Current Version | Previous Version | Text Only | Print | Product List | Glossary Off
Versions: 1 2 3 4 5 6 7 8 9 10 11 12 13 14 15 16 17 18 19 20 21

000
FTUS43 KBIS 271700
TAFBIS
TAF
KBIS 271732Z 2718/2818 01006KT P6SM SKC
     FM280000 07007KT P6SM SCT250
     FM281000 04013KT P6SM BKN150
     FM281400 04016KT P6SM OVC070=

USA.gov is the U.S. government's official web portal to all federal, state and local government web resources and services.